< < Back
Terminal Aerodrome Forecast


Current Version              Previous Versions:   1  2  3  4  5  6  7  8  9  

Terminal Aerodrome Forecast

460
FTAK31 PAJN 091737
TAFAGS
TAF
PAGS 091737Z 0918/1018 VRB05KT P6SM BKN040 BKN200
     FM092000 12006KT P6SM SCT040 SCT200
     FM100400 12006KT P6SM SCT030 BKN050 OVC100
     FM100900 12010KT P6SM -RA BKN040 OVC070
     FM101200 12012G20KT 4SM -RA BR FEW006 SCT010 OVC025
      AMD LTD TO CLD VIS AND WIND=

Latest METAR

861
SAUS70 KWBC 092200 RRF
MTRAGS
METAR KAGS 092153Z 28010KT 10SM OVC070 04/M07 A2987 RMK AO2 SLP114
T00441067


USA.gov is the U.S. government's official web portal to all federal, state and local government web resources and services.